Time,TemperatureF,DewpointF,PressureIn,WindDirection,WindDirectionDegrees,WindSpeedMPH,WindSpeedGustMPH,Humidity,HourlyPrecipIn,Conditions,Clouds,dailyrainin,SoftwareType,DateUTC
2013-07-05 00:01:00,70.1,0.0,30.24,SE,141,0.0,0.0,0,0.24,,BKN060,0.00,VWS V14.01,2013-07-05 04:01:00,
2013-07-05 00:06:00,70.1,0.0,30.24,SE,141,0.0,0.0,0,0.24,,BKN060,0.00,VWS V14.01,2013-07-05 04:06:00,
2013-07-05 00:11:00,70.0,0.0,30.23,SE,141,0.0,0.0,0,0.24,,BKN060,0.00,VWS V14.01,2013-07-05 04:11:00,
2013-07-05 00:16:00,69.9,0.0,30.23,SE,141,0.0,0.0,0,0.24,,BKN060,0.00,VWS V14.01,2013-07-05 04:16:00,
2013-07-05 00:21:00,69.9,0.0,30.24,SE,141,0.0,1.0,0,0.25,,BKN060,0.01,VWS V14.01,2013-07-05 04:21:00,
2013-07-05 00:26:00,69.9,0.0,30.24,SE,141,0.0,1.0,0,0.29,,BKN060,0.05,VWS V14.01,2013-07-05 04:26:00,
2013-07-05 00:31:00,69.9,0.0,30.24,SSW,197,0.0,1.0,0,0.18,,BKN060,0.11,VWS V14.01,2013-07-05 04:31:00,
2013-07-05 00:36:00,69.9,0.0,30.23,SSW,197,0.0,1.0,0,0.21,,BKN060,0.14,VWS V14.01,2013-07-05 04:36:00,
2013-07-05 00:41:00,69.9,0.0,30.24,SSW,198,0.0,1.0,0,0.21,,BKN060,0.14,VWS V14.01,2013-07-05 04:41:00,
2013-07-05 00:46:00,69.9,0.0,30.24,SSW,198,0.0,1.0,0,0.21,,BKN060,0.14,VWS V14.01,2013-07-05 04:46:00,
2013-07-05 00:51:00,69.8,0.0,30.24,SSW,197,0.0,1.0,0,0.21,,BKN060,0.14,VWS V14.01,2013-07-05 04:51:00,
2013-07-05 00:56:00,69.7,0.0,30.24,SSW,198,0.0,1.0,0,0.21,,BKN060,0.14,VWS V14.01,2013-07-05 04:56:00,
2013-07-05 01:01:00,69.6,0.0,30.23,SSW,197,0.0,0.0,0,0.14,,OVC033,0.14,VWS V14.01,2013-07-05 05:01:00,
2013-07-05 01:06:00,69.6,0.0,30.24,SSW,197,0.0,0.0,0,0.14,,OVC033,0.14,VWS V14.01,2013-07-05 05:06:00,
2013-07-05 01:11:00,69.5,0.0,30.23,SSW,198,0.0,0.0,0,0.14,,OVC033,0.14,VWS V14.01,2013-07-05 05:11:00,
2013-07-05 01:16:00,69.5,0.0,30.23,SSW,198,0.0,0.0,0,0.14,,OVC033,0.14,VWS V14.01,2013-07-05 05:16:00,
2013-07-05 01:21:00,69.5,0.0,30.23,SSW,198,0.0,0.0,0,0.14,,OVC033,0.14,VWS V14.01,2013-07-05 05:21:00,
2013-07-05 01:26:00,69.6,0.0,30.23,SSW,198,0.0,0.0,0,0.14,,OVC033,0.14,VWS V14.01,2013-07-05 05:26:00,
2013-07-05 01:31:00,69.6,0.0,30.23,SSW,197,0.0,0.0,0,0.03,,OVC033,0.14,VWS V14.01,2013-07-05 05:31:00,
2013-07-05 01:36:00,69.5,0.0,30.22,SSW,197,0.0,0.0,0,0.03,,OVC033,0.14,VWS V14.01,2013-07-05 05:36:00,
2013-07-05 01:41:00,69.6,0.0,30.22,SSW,198,0.0,0.0,0,0.03,,OVC033,0.14,VWS V14.01,2013-07-05 05:41:00,
2013-07-05 01:46:00,69.6,0.0,30.22,SSW,198,0.0,0.0,0,0.05,,OVC033,0.16,VWS V14.01,2013-07-05 05:46:00,
2013-07-05 01:51:00,69.7,0.0,30.22,SSW,197,0.0,0.0,0,0.05,,OVC033,0.16,VWS V14.01,2013-07-05 05:51:00,
2013-07-05 01:56:00,69.7,0.0,30.22,SSW,198,0.0,0.0,0,0.05,,OVC033,0.16,VWS V14.01,2013-07-05 05:56:00,
2013-07-05 02:01:00,69.7,0.0,30.22,SSW,198,0.0,0.0,0,0.03,,RA,0.17,VWS V14.01,2013-07-05 06:01:00,
2013-07-05 02:06:00,69.8,0.0,30.22,SSW,195,0.0,1.0,0,0.04,,RA,0.18,VWS V14.01,2013-07-05 06:06:00,
2013-07-05 02:11:00,69.9,0.0,30.22,SSW,195,0.0,1.0,0,0.04,,RA,0.18,VWS V14.01,2013-07-05 06:11:00,
2013-07-05 02:16:00,69.8,0.0,30.22,SSW,197,0.0,1.0,0,0.08,,RA,0.22,VWS V14.01,2013-07-05 06:16:00,
2013-07-05 02:21:00,69.8,0.0,30.21,SSW,197,0.0,1.0,0,0.13,,RA,0.27,VWS V14.01,2013-07-05 06:21:00,
2013-07-05 02:26:00,69.7,0.0,30.21,SSW,197,0.0,1.0,0,0.14,,RA,0.28,VWS V14.01,2013-07-05 06:26:00,
2013-07-05 02:31:00,69.8,0.0,30.21,SSW,195,0.0,0.0,0,0.15,,RA,0.29,VWS V14.01,2013-07-05 06:31:00,
2013-07-05 02:36:00,69.9,0.0,30.22,SSW,198,0.0,1.0,0,0.20,,RA,0.34,VWS V14.01,2013-07-05 06:36:00,
2013-07-05 02:41:00,69.9,0.0,30.22,ESE,114,0.0,2.0,0,0.23,,RA,0.37,VWS V14.01,2013-07-05 06:41:00,
2013-07-05 02:46:00,69.9,0.0,30.22,ESE,114,0.0,2.0,0,0.23,,RA,0.37,VWS V14.01,2013-07-05 06:46:00,
2013-07-05 02:51:00,69.8,0.0,30.21,ESE,115,0.0,2.0,0,0.23,,RA,0.37,VWS V14.01,2013-07-05 06:51:00,
2013-07-05 02:56:00,69.9,0.0,30.21,ESE,114,0.0,2.0,0,0.23,,RA,0.37,VWS V14.01,2013-07-05 06:56:00,
2013-07-05 03:01:00,69.9,0.0,30.22,ESE,114,0.0,0.0,0,0.20,,OVC045,0.37,VWS V14.01,2013-07-05 07:01:00,
2013-07-05 03:06:00,69.9,0.0,30.22,ESE,114,0.0,1.0,0,0.20,,OVC045,0.37,VWS V14.01,2013-07-05 07:06:00,
2013-07-05 03:11:00,70.2,0.0,30.22,SE,146,0.0,1.0,0,0.21,,OVC045,0.38,VWS V14.01,2013-07-05 07:11:00,
2013-07-05 03:16:00,70.4,0.0,30.22,SE,146,0.0,1.0,0,0.22,,OVC045,0.39,VWS V14.01,2013-07-05 07:16:00,
2013-07-05 03:21:00,70.4,0.0,30.21,SSE,147,0.0,1.0,0,0.22,,OVC045,0.39,VWS V14.01,2013-07-05 07:21:00,
2013-07-05 03:26:00,70.4,0.0,30.21,SSE,147,0.0,1.0,0,0.22,,OVC045,0.39,VWS V14.01,2013-07-05 07:26:00,
2013-07-05 03:31:00,70.4,0.0,30.21,SSE,147,0.0,0.0,0,0.11,,OVC045,0.39,VWS V14.01,2013-07-05 07:31:00,
2013-07-05 03:36:00,70.4,0.0,30.21,SSE,147,0.0,0.0,0,0.11,,OVC045,0.39,VWS V14.01,2013-07-05 07:36:00,
2013-07-05 03:41:00,70.3,0.0,30.21,SSE,147,0.0,0.0,0,0.11,,OVC045,0.39,VWS V14.01,2013-07-05 07:41:00,
2013-07-05 03:46:00,70.3,0.0,30.21,SSE,147,0.0,0.0,0,0.11,,OVC045,0.39,VWS V14.01,2013-07-05 07:46:00,
2013-07-05 03:51:00,70.2,0.0,30.21,SSE,147,0.0,0.0,0,0.11,,OVC045,0.39,VWS V14.01,2013-07-05 07:51:00,
2013-07-05 03:56:00,70.2,0.0,30.21,SE,146,0.0,0.0,0,0.11,,OVC045,0.39,VWS V14.01,2013-07-05 07:56:00,
2013-07-05 04:01:00,70.3,0.0,30.21,SSE,147,0.0,0.0,0,0.02,,OVC055,0.39,VWS V14.01,2013-07-05 08:01:00,
2013-07-05 04:06:00,70.4,0.0,30.21,SE,146,0.0,0.0,0,0.02,,OVC055,0.39,VWS V14.01,2013-07-05 08:06:00,
2013-07-05 04:11:00,70.3,0.0,30.21,SSE,147,0.0,0.0,0,0.02,,OVC055,0.39,VWS V14.01,2013-07-05 08:11:00,
2013-07-05 04:16:00,70.3,0.0,30.21,SE,146,0.0,0.0,0,0.02,,OVC055,0.39,VWS V14.01,2013-07-05 08:16:00,
2013-07-05 04:21:00,70.3,0.0,30.21,SE,146,0.0,0.0,0,0.02,,OVC055,0.39,VWS V14.01,2013-07-05 08:21:00,
2013-07-05 04:26:00,70.4,0.0,30.21,SE,146,0.0,0.0,0,0.02,,OVC055,0.39,VWS V14.01,2013-07-05 08:26:00,
2013-07-05 04:31:00,70.4,0.0,30.21,SSE,147,0.0,0.0,0,0.00,,OVC055,0.39,VWS V14.01,2013-07-05 08:31:00,
2013-07-05 04:36:00,70.4,0.0,30.21,SE,146,0.0,0.0,0,0.00,,OVC055,0.39,VWS V14.01,2013-07-05 08:36:00,
2013-07-05 04:41:00,70.5,0.0,30.21,SSE,147,0.0,0.0,0,0.00,,OVC055,0.39,VWS V14.01,2013-07-05 08:41:00,
2013-07-05 04:46:00,70.5,0.0,30.21,SE,146,0.0,0.0,0,0.00,,OVC055,0.39,VWS V14.01,2013-07-05 08:46:00,
2013-07-05 04:51:00,70.5,0.0,30.21,SSE,147,0.0,0.0,0,0.00,,OVC055,0.39,VWS V14.01,2013-07-05 08:51:00,
2013-07-05 04:56:00,70.5,0.0,30.21,SE,146,0.0,0.0,0,0.00,,OVC055,0.39,VWS V14.01,2013-07-05 08:56:00,
2013-07-05 05:01:00,70.5,0.0,30.21,SE,146,0.0,0.0,0,0.00,,BKN041,0.39,VWS V14.01,2013-07-05 09:01:00,
2013-07-05 05:06:00,70.6,0.0,30.21,SSE,147,0.0,0.0,0,0.00,,BKN041,0.39,VWS V14.01,2013-07-05 09:06:00,
2013-07-05 05:12:00,70.6,0.0,30.21,SE,146,0.0,0.0,0,0.00,,BKN041,0.39,VWS V14.01,2013-07-05 09:12:00,
2013-07-05 05:17:00,70.6,0.0,30.21,SE,146,0.0,0.0,0,0.00,,BKN041,0.39,VWS V14.01,2013-07-05 09:17:00,
2013-07-05 05:22:00,70.5,0.0,30.21,SSE,147,0.0,0.0,0,0.00,,BKN041,0.39,VWS V14.01,2013-07-05 09:22:00,
2013-07-05 05:27:00,70.5,0.0,30.21,SSE,147,0.0,0.0,0,0.00,,BKN041,0.39,VWS V14.01,2013-07-05 09:27:00,
2013-07-05 05:32:00,70.6,0.0,30.21,SSE,147,0.0,0.0,0,0.00,,BKN041,0.39,VWS V14.01,2013-07-05 09:32:00,
2013-07-05 05:37:00,70.5,0.0,30.21,SSE,147,0.0,0.0,0,0.00,,BKN041,0.39,VWS V14.01,2013-07-05 09:37:00,
2013-07-05 05:42:00,70.6,0.0,30.21,SSE,147,0.0,0.0,0,0.00,,BKN041,0.39,VWS V14.01,2013-07-05 09:42:00,
2013-07-05 05:47:00,70.6,0.0,30.21,SSE,147,0.0,0.0,0,0.00,,BKN041,0.39,VWS V14.01,2013-07-05 09:47:00,
2013-07-05 05:52:00,70.6,0.0,30.21,SSE,147,0.0,0.0,0,0.00,,BKN041,0.39,VWS V14.01,2013-07-05 09:52:00,
2013-07-05 05:57:00,70.6,0.0,30.22,SE,146,0.0,0.0,0,0.00,,BKN041,0.39,VWS V14.01,2013-07-05 09:57:00,
2013-07-05 06:02:00,70.6,0.0,30.22,SSE,147,0.0,0.0,0,0.00,,OVC060,0.39,VWS V14.01,2013-07-05 10:02:00,
2013-07-05 06:07:00,70.6,0.0,30.22,SSE,147,0.0,0.0,0,0.00,,OVC060,0.39,VWS V14.01,2013-07-05 10:07:00,
2013-07-05 06:12:00,70.6,0.0,30.22,SE,146,0.0,0.0,0,0.00,,OVC060,0.39,VWS V14.01,2013-07-05 10:12:00,
2013-07-05 06:17:00,70.6,0.0,30.22,SE,146,0.0,0.0,0,0.00,,OVC060,0.39,VWS V14.01,2013-07-05 10:17:00,
2013-07-05 06:22:00,70.6,0.0,30.22,SE,146,0.0,0.0,0,0.01,,OVC060,0.40,VWS V14.01,2013-07-05 10:22:00,
2013-07-05 06:27:00,70.6,0.0,30.22,SSE,147,0.0,0.0,0,0.01,,OVC060,0.40,VWS V14.01,2013-07-05 10:27:00,
2013-07-05 06:33:00,70.7,0.0,30.23,SSE,147,0.0,0.0,0,0.01,,OVC060,0.40,VWS V14.01,2013-07-05 10:33:00,
2013-07-05 06:38:00,70.7,0.0,30.23,SSE,147,0.0,0.0,0,0.01,,OVC060,0.40,VWS V14.01,2013-07-05 10:38:00,
2013-07-05 06:42:00,70.7,0.0,30.23,SE,146,0.0,0.0,0,0.01,,OVC060,0.40,VWS V14.01,2013-07-05 10:42:00,
2013-07-05 06:47:00,70.8,0.0,30.23,SSE,147,0.0,0.0,0,0.01,,OVC060,0.40,VWS V14.01,2013-07-05 10:47:00,
2013-07-05 06:52:00,70.9,0.0,30.23,SSE,147,0.0,0.0,0,0.01,,OVC060,0.40,VWS V14.01,2013-07-05 10:52:00,
2013-07-05 06:58:00,71.0,0.0,30.23,SSE,147,0.0,0.0,0,0.01,,OVC060,0.40,VWS V14.01,2013-07-05 10:58:00,
2013-07-05 07:03:00,71.1,0.0,30.23,SSE,160,0.0,1.0,0,0.02,, +RA,0.41,VWS V14.01,2013-07-05 11:03:00,
2013-07-05 07:08:00,71.1,0.0,30.23,SSE,160,0.0,1.0,0,0.05,, +RA,0.44,VWS V14.01,2013-07-05 11:08:00,
2013-07-05 07:13:00,71.1,0.0,30.23,SSE,160,0.0,1.0,0,0.06,, +RA,0.45,VWS V14.01,2013-07-05 11:13:00,
2013-07-05 07:18:00,71.1,0.0,30.24,SSW,206,0.0,1.0,0,0.07,, +RA,0.46,VWS V14.01,2013-07-05 11:18:00,
2013-07-05 07:23:00,70.9,0.0,30.24,SSE,149,0.0,1.0,0,0.11,, +RA,0.50,VWS V14.01,2013-07-05 11:23:00,
2013-07-05 07:28:00,70.7,0.0,30.23,ESE,118,0.0,1.0,0,0.13,, +RA,0.52,VWS V14.01,2013-07-05 11:28:00,
2013-07-05 07:33:00,70.7,0.0,30.24,SE,146,0.0,1.0,0,0.13,, +RA,0.53,VWS V14.01,2013-07-05 11:33:00,
2013-07-05 07:38:00,70.8,0.0,30.24,SE,143,0.0,1.0,0,0.13,, +RA,0.53,VWS V14.01,2013-07-05 11:38:00,
2013-07-05 07:43:00,70.8,0.0,30.24,SE,146,0.0,1.0,0,0.15,, +RA,0.55,VWS V14.01,2013-07-05 11:43:00,
2013-07-05 07:48:00,71.0,0.0,30.24,SE,145,0.0,1.0,0,0.18,, +RA,0.58,VWS V14.01,2013-07-05 11:48:00,
2013-07-05 07:53:00,71.1,0.0,30.24,SE,145,0.0,1.0,0,0.19,, +RA,0.59,VWS V14.01,2013-07-05 11:53:00,
2013-07-05 07:58:00,71.2,0.0,30.24,SE,146,0.0,1.0,0,0.19,, +RA,0.59,VWS V14.01,2013-07-05 11:58:00,
2013-07-05 08:03:00,71.3,0.0,30.24,SE,145,0.0,0.0,0,0.19,,,0.59,VWS V14.01,2013-07-05 12:03:00,
2013-07-05 08:09:00,71.4,0.0,30.24,SE,146,0.0,0.0,0,0.20,,,0.60,VWS V14.01,2013-07-05 12:09:00,
2013-07-05 08:14:00,71.5,0.0,30.24,SE,145,0.0,0.0,0,0.20,,,0.60,VWS V14.01,2013-07-05 12:14:00,
2013-07-05 08:19:00,71.7,0.0,30.24,SE,146,0.0,1.0,0,0.20,,,0.60,VWS V14.01,2013-07-05 12:19:00,
2013-07-05 08:24:00,71.8,0.0,30.24,SE,146,0.0,1.0,0,0.20,,,0.60,VWS V14.01,2013-07-05 12:24:00,
2013-07-05 08:29:00,72.0,0.0,30.25,SSE,162,2.0,3.0,0,0.20,,,0.60,VWS V14.01,2013-07-05 12:29:00,
2013-07-05 08:34:00,72.2,0.0,30.24,SW,224,1.0,3.0,0,0.07,,,0.60,VWS V14.01,2013-07-05 12:34:00,
2013-07-05 08:39:00,72.5,0.0,30.25,WNW,297,2.0,3.0,0,0.07,,,0.60,VWS V14.01,2013-07-05 12:39:00,
2013-07-05 08:44:00,72.7,0.0,30.25,SSW,198,0.0,3.0,0,0.07,,,0.60,VWS V14.01,2013-07-05 12:44:00,
2013-07-05 08:49:00,73.1,0.0,30.25,SSW,195,0.0,4.0,0,0.07,,,0.60,VWS V14.01,2013-07-05 12:49:00,
2013-07-05 08:55:00,73.1,0.0,30.25,SE,125,1.0,4.0,0,0.07,,,0.60,VWS V14.01,2013-07-05 12:55:00,
2013-07-05 09:00:00,73.1,0.0,30.25,South,181,0.0,4.0,0,0.07,,,0.60,VWS V14.01,2013-07-05 13:00:00,
2013-07-05 09:05:00,73.0,0.0,30.25,South,173,1.0,2.0,0,0.01,,SCT060,0.60,VWS V14.01,2013-07-05 13:05:00,
2013-07-05 09:10:00,73.5,0.0,30.26,SSW,193,1.0,2.0,0,0.01,,SCT060,0.60,VWS V14.01,2013-07-05 13:10:00,
2013-07-05 09:15:00,73.3,0.0,30.26,ESE,115,0.0,2.0,0,0.01,,SCT060,0.60,VWS V14.01,2013-07-05 13:15:00,
2013-07-05 09:20:00,73.3,0.0,30.26,ESE,102,1.0,2.0,0,0.01,,SCT060,0.60,VWS V14.01,2013-07-05 13:20:00,
2013-07-05 09:25:00,73.5,0.0,30.26,SSE,167,2.0,3.0,0,0.01,,SCT060,0.60,VWS V14.01,2013-07-05 13:25:00,
2013-07-05 09:30:00,73.7,0.0,30.26,SE,134,1.0,3.0,0,0.01,,SCT060,0.60,VWS V14.01,2013-07-05 13:30:00,
2013-07-05 09:35:00,73.7,0.0,30.26,SSW,203,0.0,2.0,0,0.00,,SCT060,0.60,VWS V14.01,2013-07-05 13:35:00,
2013-07-05 09:40:00,73.6,0.0,30.26,SE,134,0.0,2.0,0,0.00,,SCT060,0.60,VWS V14.01,2013-07-05 13:40:00,
2013-07-05 09:45:00,73.9,0.0,30.26,SSE,167,0.0,2.0,0,0.00,,SCT060,0.60,VWS V14.01,2013-07-05 13:45:00,
2013-07-05 09:50:00,73.8,0.0,30.26,SSW,197,0.0,2.0,0,0.00,,SCT060,0.60,VWS V14.01,2013-07-05 13:50:00,
2013-07-05 09:55:00,74.0,0.0,30.26,SSW,195,1.0,2.0,0,0.00,,SCT060,0.60,VWS V14.01,2013-07-05 13:55:00,
2013-07-05 10:00:00,73.9,0.0,30.26,South,191,0.0,0.0,0,0.01,,OVC050,0.61,VWS V14.01,2013-07-05 14:00:00,
2013-07-05 10:05:00,73.9,0.0,30.26,South,170,0.0,1.0,0,0.05,,OVC050,0.65,VWS V14.01,2013-07-05 14:05:00,
2013-07-05 10:10:00,73.9,0.0,30.26,WSW,242,0.0,1.0,0,0.06,,OVC050,0.66,VWS V14.01,2013-07-05 14:10:00,
2013-07-05 10:15:00,73.8,0.0,30.26,SSW,212,0.0,1.0,0,0.07,,OVC050,0.67,VWS V14.01,2013-07-05 14:15:00,
2013-07-05 10:20:00,73.6,0.0,30.26,South,190,0.0,2.0,0,0.08,,OVC050,0.68,VWS V14.01,2013-07-05 14:20:00,
2013-07-05 10:25:00,73.4,0.0,30.26,South,187,0.0,2.0,0,0.08,,OVC050,0.68,VWS V14.01,2013-07-05 14:25:00,
2013-07-05 10:30:00,73.2,0.0,30.25,SE,141,0.0,0.0,0,0.08,,OVC050,0.68,VWS V14.01,2013-07-05 14:30:00,
2013-07-05 10:35:00,73.7,0.0,30.26,SSW,195,0.0,2.0,0,0.08,,OVC050,0.68,VWS V14.01,2013-07-05 14:35:00,
2013-07-05 10:40:00,74.2,0.0,30.26,ESE,123,1.0,2.0,0,0.08,,OVC050,0.68,VWS V14.01,2013-07-05 14:40:00,
2013-07-05 10:46:00,74.4,0.0,30.26,SW,214,1.0,4.0,0,0.08,,OVC050,0.68,VWS V14.01,2013-07-05 14:46:00,
2013-07-05 10:51:00,74.4,0.0,30.26,SE,140,1.0,4.0,0,0.08,,OVC050,0.68,VWS V14.01,2013-07-05 14:51:00,
2013-07-05 10:56:00,74.4,0.0,30.26,SSE,158,1.0,4.0,0,0.08,,OVC050,0.68,VWS V14.01,2013-07-05 14:56:00,
2013-07-05 11:01:00,75.0,0.0,30.26,South,173,1.0,1.0,0,0.07,,SCT031,0.68,VWS V14.01,2013-07-05 15:01:00,
2013-07-05 11:06:00,75.7,0.0,30.26,SW,236,0.0,3.0,0,0.07,,SCT031,0.68,VWS V14.01,2013-07-05 15:06:00,
2013-07-05 11:11:00,75.9,0.0,30.26,SSW,211,1.0,5.0,0,0.07,,SCT031,0.68,VWS V14.01,2013-07-05 15:11:00,
2013-07-05 11:16:00,77.0,0.0,30.26,South,188,2.0,5.0,0,0.07,,SCT031,0.68,VWS V14.01,2013-07-05 15:16:00,
2013-07-05 11:21:00,77.3,0.0,30.26,SSW,195,0.0,5.0,0,0.07,,SCT031,0.68,VWS V14.01,2013-07-05 15:21:00,
2013-07-05 11:26:00,77.8,0.0,30.26,SSW,204,1.0,5.0,0,0.07,,SCT031,0.68,VWS V14.01,2013-07-05 15:26:00,
2013-07-05 11:31:00,78.3,0.0,30.26,SE,127,1.0,5.0,0,0.00,,SCT031,0.68,VWS V14.01,2013-07-05 15:31:00,
2013-07-05 11:36:00,78.9,0.0,30.26,SSE,158,1.0,6.0,0,0.00,,SCT031,0.68,VWS V14.01,2013-07-05 15:36:00,
2013-07-05 11:41:00,79.4,0.0,30.26,South,191,2.0,6.0,0,0.00,,SCT031,0.68,VWS V14.01,2013-07-05 15:41:00,
2013-07-05 11:46:00,79.6,-29.2,30.26,East,87,1.0,6.0,1,0.00,,SCT031,0.68,VWS V14.01,2013-07-05 15:46:00,
2013-07-05 11:49:00,79.9,-15.9,30.26,SE,145,2.0,6.0,2,0.00,,SCT031,0.68,VWS V14.01,2013-07-05 15:49:00,
2013-07-05 19:45:00,73.0,0.0,30.23,East,82,0.0,0.0,0,0.16,,SCT031,0.84,VWS V14.01,2013-07-05 23:45:00,
2013-07-05 19:50:00,72.7,0.0,30.23,East,82,0.0,1.0,0,0.16,,SCT031,0.84,VWS V14.01,2013-07-05 23:50:00,
2013-07-05 19:55:00,72.7,0.0,30.23,East,82,0.0,1.0,0,0.16,,SCT031,0.84,VWS V14.01,2013-07-05 23:55:00,
2013-07-05 20:00:00,72.6,0.0,30.23,East,82,0.0,0.0,0,0.00,,SCT031,0.84,VWS V14.01,2013-07-06 00:00:00,
2013-07-05 20:05:00,72.5,0.0,30.23,East,82,0.0,0.0,0,0.00,,SCT031,0.84,VWS V14.01,2013-07-06 00:05:00,
2013-07-05 20:10:00,72.5,0.0,30.23,East,82,0.0,0.0,0,0.00,,SCT031,0.84,VWS V14.01,2013-07-06 00:10:00,
2013-07-05 20:15:00,72.3,0.0,30.23,East,82,0.0,0.0,0,0.00,,SCT031,0.84,VWS V14.01,2013-07-06 00:15:00,
2013-07-05 20:20:00,72.2,0.0,30.23,East,82,0.0,0.0,0,0.00,,SCT031,0.84,VWS V14.01,2013-07-06 00:20:00,
2013-07-05 20:25:00,72.1,0.0,30.22,East,82,0.0,1.0,0,0.00,,SCT031,0.84,VWS V14.01,2013-07-06 00:25:00,
2013-07-05 20:30:00,72.0,0.0,30.23,East,82,0.0,0.0,0,0.00,,SCT031,0.84,VWS V14.01,2013-07-06 00:30:00,
2013-07-05 20:35:00,71.9,0.0,30.22,East,82,0.0,0.0,0,0.00,,SCT031,0.84,VWS V14.01,2013-07-06 00:35:00,
2013-07-05 20:36:00,71.8,0.0,30.22,East,82,0.0,0.0,0,0.00,,SCT031,0.84,VWS V14.01,2013-07-06 00:36:00,
2013-07-05 20:41:00,71.6,0.0,30.22,East,82,0.0,0.0,0,0.00,,SCT031,0.84,VWS V14.01,2013-07-06 00:41:00,
2013-07-05 20:46:00,71.4,0.0,30.22,East,82,0.0,0.0,0,0.00,,SCT031,0.84,VWS V14.01,2013-07-06 00:46:00,
2013-07-05 20:51:00,71.3,0.0,30.22,East,82,0.0,0.0,0,0.00,,SCT031,0.84,VWS V14.01,2013-07-06 00:51:00,
2013-07-05 20:56:00,71.2,0.0,30.22,East,82,0.0,0.0,0,0.00,,SCT031,0.84,VWS V14.01,2013-07-06 00:56:00,
2013-07-05 21:01:00,71.1,0.0,30.22,East,82,0.0,0.0,0,0.00,,SCT031,0.84,VWS V14.01,2013-07-06 01:01:00,
2013-07-05 21:06:00,71.1,0.0,30.23,East,82,0.0,0.0,0,0.00,,SCT031,0.84,VWS V14.01,2013-07-06 01:06:00,
2013-07-05 21:11:00,71.0,0.0,30.23,East,82,0.0,0.0,0,0.00,,SCT031,0.84,VWS V14.01,2013-07-06 01:11:00,
2013-07-05 21:16:00,70.9,0.0,30.23,East,82,0.0,0.0,0,0.00,,SCT031,0.84,VWS V14.01,2013-07-06 01:16:00,
2013-07-05 21:21:00,70.8,0.0,30.24,East,82,0.0,0.0,0,0.00,,SCT031,0.84,VWS V14.01,2013-07-06 01:21:00,
2013-07-05 21:26:00,70.6,0.0,30.24,East,82,0.0,0.0,0,0.00,,SCT031,0.84,VWS V14.01,2013-07-06 01:26:00,
2013-07-05 21:31:00,70.4,0.0,30.24,East,82,0.0,0.0,0,0.00,,SCT031,0.84,VWS V14.01,2013-07-06 01:31:00,
2013-07-05 21:36:00,70.3,0.0,30.24,East,82,0.0,0.0,0,0.00,,SCT031,0.84,VWS V14.01,2013-07-06 01:36:00,
2013-07-05 21:41:00,70.1,0.0,30.25,East,82,0.0,0.0,0,0.00,,SCT031,0.84,VWS V14.01,2013-07-06 01:41:00,
2013-07-05 21:46:00,70.0,0.0,30.25,East,82,0.0,0.0,0,0.00,,SCT031,0.84,VWS V14.01,2013-07-06 01:46:00,
2013-07-05 21:51:00,70.0,0.0,30.25,East,82,0.0,0.0,0,0.00,,SCT031,0.84,VWS V14.01,2013-07-06 01:51:00,
2013-07-05 21:56:00,70.0,0.0,30.25,East,82,0.0,0.0,0,0.00,,SCT031,0.84,VWS V14.01,2013-07-06 01:56:00,
2013-07-05 22:01:00,69.8,0.0,30.25,East,82,0.0,0.0,0,0.00,,SCT031,0.84,VWS V14.01,2013-07-06 02:01:00,
2013-07-05 22:06:00,69.7,0.0,30.25,East,82,0.0,0.0,0,0.00,,SCT031,0.84,VWS V14.01,2013-07-06 02:06:00,
2013-07-05 22:11:00,69.7,0.0,30.25,East,82,0.0,0.0,0,0.00,,SCT031,0.84,VWS V14.01,2013-07-06 02:11:00,
2013-07-05 22:16:00,69.7,0.0,30.25,East,82,0.0,0.0,0,0.00,,SCT031,0.84,VWS V14.01,2013-07-06 02:16:00,
2013-07-05 22:21:00,69.6,0.0,30.26,East,82,0.0,0.0,0,0.00,,SCT031,0.84,VWS V14.01,2013-07-06 02:21:00,
2013-07-05 22:26:00,69.6,0.0,30.26,East,82,0.0,0.0,0,0.00,,SCT031,0.84,VWS V14.01,2013-07-06 02:26:00,
2013-07-05 22:31:00,69.6,0.0,30.26,East,82,0.0,0.0,0,0.00,,SCT031,0.84,VWS V14.01,2013-07-06 02:31:00,
2013-07-05 22:36:00,69.6,0.0,30.26,East,82,0.0,0.0,0,0.00,,SCT031,0.84,VWS V14.01,2013-07-06 02:36:00,
2013-07-05 22:41:00,69.6,0.0,30.26,East,82,0.0,0.0,0,0.00,,SCT031,0.84,VWS V14.01,2013-07-06 02:41:00,
2013-07-05 22:46:00,69.5,0.0,30.26,East,82,0.0,0.0,0,0.00,,SCT031,0.84,VWS V14.01,2013-07-06 02:46:00,
2013-07-05 22:51:00,69.6,0.0,30.25,East,82,0.0,0.0,0,0.00,,SCT031,0.84,VWS V14.01,2013-07-06 02:51:00,
2013-07-05 22:56:00,69.5,0.0,30.26,East,82,0.0,0.0,0,0.00,,SCT031,0.84,VWS V14.01,2013-07-06 02:56:00,
2013-07-05 23:01:00,69.4,0.0,30.25,East,82,0.0,0.0,0,0.00,,SCT031,0.84,VWS V14.01,2013-07-06 03:01:00,
2013-07-05 23:06:00,69.3,0.0,30.25,East,82,0.0,0.0,0,0.00,,SCT031,0.84,VWS V14.01,2013-07-06 03:06:00,
2013-07-05 23:11:00,69.2,0.0,30.25,East,82,0.0,0.0,0,0.00,,SCT031,0.84,VWS V14.01,2013-07-06 03:11:00,
2013-07-05 23:12:00,69.2,0.0,30.25,East,82,0.0,0.0,0,0.00,,SCT031,0.84,VWS V14.01,2013-07-06 03:12:00,
2013-07-05 23:17:00,69.2,0.0,30.25,East,82,0.0,0.0,0,0.00,,SCT031,0.84,VWS V14.01,2013-07-06 03:17:00,
2013-07-05 23:22:00,69.0,0.0,30.25,East,82,0.0,0.0,0,0.00,,SCT031,0.84,VWS V14.01,2013-07-06 03:22:00,
2013-07-05 23:27:00,68.9,0.0,30.24,East,82,0.0,0.0,0,0.00,,SCT031,0.84,VWS V14.01,2013-07-06 03:27:00,
2013-07-05 23:32:00,68.8,0.0,30.24,East,82,0.0,0.0,0,0.00,,SCT031,0.84,VWS V14.01,2013-07-06 03:32:00,
2013-07-05 23:37:00,68.8,0.0,30.24,East,82,0.0,0.0,0,0.00,,SCT031,0.84,VWS V14.01,2013-07-06 03:37:00,
2013-07-05 23:42:00,68.8,0.0,30.24,East,82,0.0,0.0,0,0.00,,SCT031,0.84,VWS V14.01,2013-07-06 03:42:00,
2013-07-05 23:47:00,68.7,0.0,30.25,East,82,0.0,0.0,0,0.00,,SCT031,0.84,VWS V14.01,2013-07-06 03:47:00,
2013-07-05 23:52:00,68.6,0.0,30.25,East,82,0.0,0.0,0,0.00,,SCT031,0.84,VWS V14.01,2013-07-06 03:52:00,
2013-07-05 23:57:00,68.5,0.0,30.25,East,82,0.0,0.0,0,0.00,,SCT031,0.84,VWS V14.01,2013-07-06 03:57:00,